sensor_id;sensor_type;location;lat;lon;timestamp;pressure;altitude;pressure_sealevel;temperature;humidity
62942;BME280;49042;47.318;19.874;2023-02-07T00:02:55;102673.16;;;-6.56;87.41
62942;BME280;49042;47.318;19.874;2023-02-07T00:06:12;102675.78;;;-6.62;87.79
62942;BME280;49042;47.318;19.874;2023-02-07T00:09:14;102680.22;;;-6.67;88.36
62942;BME280;49042;47.318;19.874;2023-02-07T00:12:17;102689.75;;;-6.71;88.69
62942;BME280;49042;47.318;19.874;2023-02-07T00:15:19;102692.72;;;-6.68;88.65
62942;BME280;49042;47.318;19.874;2023-02-07T00:18:20;102696.09;;;-6.81;89.22
62942;BME280;49042;47.318;19.874;2023-02-07T00:21:23;102707.84;;;-6.81;89.74
62942;BME280;49042;47.318;19.874;2023-02-07T00:24:25;102706.09;;;-6.88;90.20
62942;BME280;49042;47.318;19.874;2023-02-07T00:27:27;102710.91;;;-6.84;90.46
62942;BME280;49042;47.318;19.874;2023-02-07T00:30:28;102721.75;;;-6.85;90.52
62942;BME280;49042;47.318;19.874;2023-02-07T00:33:30;102719.06;;;-6.92;91.08
62942;BME280;49042;47.318;19.874;2023-02-07T00:36:33;102716.03;;;-6.90;91.39
62942;BME280;49042;47.318;19.874;2023-02-07T00:39:35;102710.47;;;-6.87;91.50
62942;BME280;49042;47.318;19.874;2023-02-07T00:42:38;102709.13;;;-6.91;92.03
62942;BME280;49042;47.318;19.874;2023-02-07T00:45:40;102714.47;;;-6.95;92.54
62942;BME280;49042;47.318;19.874;2023-02-07T00:48:42;102719.13;;;-6.98;92.66
62942;BME280;49042;47.318;19.874;2023-02-07T00:51:44;102720.66;;;-7.12;93.65
62942;BME280;49042;47.318;19.874;2023-02-07T00:54:45;102713.97;;;-7.11;94.05
62942;BME280;49042;47.318;19.874;2023-02-07T00:57:47;102720.16;;;-7.09;93.96
62942;BME280;49042;47.318;19.874;2023-02-07T01:00:49;102722.09;;;-7.14;94.60
62942;BME280;49042;47.318;19.874;2023-02-07T01:03:50;102717.69;;;-7.15;94.92
62942;BME280;49042;47.318;19.874;2023-02-07T01:06:52;102714.47;;;-7.14;95.11
62942;BME280;49042;47.318;19.874;2023-02-07T01:09:54;102711.47;;;-7.17;95.39
62942;BME280;49042;47.318;19.874;2023-02-07T01:12:55;102711.03;;;-7.20;95.61
62942;BME280;49042;47.318;19.874;2023-02-07T01:15:57;102704.63;;;-7.24;95.72
62942;BME280;49042;47.318;19.874;2023-02-07T01:19:02;102713.22;;;-7.29;95.95
62942;BME280;49042;47.318;19.874;2023-02-07T01:22:04;102714.19;;;-7.34;96.14
62942;BME280;49042;47.318;19.874;2023-02-07T01:25:07;102712.38;;;-7.35;96.29
62942;BME280;49042;47.318;19.874;2023-02-07T01:28:09;102719.31;;;-7.40;96.44
62942;BME280;49042;47.318;19.874;2023-02-07T01:31:12;102705.97;;;-7.45;96.70
62942;BME280;49042;47.318;19.874;2023-02-07T01:34:14;102688.97;;;-7.46;96.64
62942;BME280;49042;47.318;19.874;2023-02-07T01:37:15;102692.50;;;-7.32;95.91
62942;BME280;49042;47.318;19.874;2023-02-07T01:40:17;102700.22;;;-7.44;95.99
62942;BME280;49042;47.318;19.874;2023-02-07T01:43:21;102691.00;;;-7.43;95.83
62942;BME280;49042;47.318;19.874;2023-02-07T01:46:25;102685.84;;;-7.56;96.46
62942;BME280;49042;47.318;19.874;2023-02-07T01:49:32;102683.34;;;-7.62;96.79
62942;BME280;49042;47.318;19.874;2023-02-07T01:52:39;102683.50;;;-7.55;96.16
62942;BME280;49042;47.318;19.874;2023-02-07T01:55:42;102677.84;;;-7.65;96.85
62942;BME280;49042;47.318;19.874;2023-02-07T01:58:46;102677.41;;;-7.68;97.16
62942;BME280;49042;47.318;19.874;2023-02-07T02:01:47;102675.81;;;-7.74;97.14
62942;BME280;49042;47.318;19.874;2023-02-07T02:04:50;102679.78;;;-7.76;97.28
62942;BME280;49042;47.318;19.874;2023-02-07T02:07:54;102668.94;;;-7.75;97.43
62942;BME280;49042;47.318;19.874;2023-02-07T02:21:32;102681.88;;;-7.79;97.65
62942;BME280;49042;47.318;19.874;2023-02-07T02:31:39;102683.06;;;-8.19;98.96
62942;BME280;49042;47.318;19.874;2023-02-07T02:34:53;102686.84;;;-8.28;99.76
62942;BME280;49042;47.318;19.874;2023-02-07T02:41:28;102674.41;;;-8.32;99.69
62942;BME280;49042;47.318;19.874;2023-02-07T02:47:49;102656.44;;;-8.28;99.66
62942;BME280;49042;47.318;19.874;2023-02-07T02:50:52;102664.47;;;-8.25;99.61
62942;BME280;49042;47.318;19.874;2023-02-07T02:53:57;102661.91;;;-8.19;99.24
62942;BME280;49042;47.318;19.874;2023-02-07T03:01:00;102667.69;;;-8.26;99.42
62942;BME280;49042;47.318;19.874;2023-02-07T03:11:14;102669.28;;;-8.21;99.25
62942;BME280;49042;47.318;19.874;2023-02-07T03:21:10;102656.16;;;-8.18;98.31
62942;BME280;49042;47.318;19.874;2023-02-07T03:24:18;102651.75;;;-8.19;99.06
62942;BME280;49042;47.318;19.874;2023-02-07T03:27:23;102674.28;;;-8.09;98.69
62942;BME280;49042;47.318;19.874;2023-02-07T03:30:31;102678.88;;;-8.07;98.54
62942;BME280;49042;47.318;19.874;2023-02-07T03:33:35;102675.66;;;-8.06;98.95
62942;BME280;49042;47.318;19.874;2023-02-07T03:37:02;102668.31;;;-8.16;99.08
62942;BME280;49042;47.318;19.874;2023-02-07T03:40:07;102663.00;;;-8.11;99.27
62942;BME280;49042;47.318;19.874;2023-02-07T03:43:17;102665.75;;;-8.10;99.05
62942;BME280;49042;47.318;19.874;2023-02-07T03:46:19;102664.16;;;-8.09;99.09
62942;BME280;49042;47.318;19.874;2023-02-07T03:49:21;102662.75;;;-8.07;98.71
62942;BME280;49042;47.318;19.874;2023-02-07T03:52:23;102657.25;;;-8.10;99.03
62942;BME280;49042;47.318;19.874;2023-02-07T03:55:25;102651.31;;;-8.17;99.49
62942;BME280;49042;47.318;19.874;2023-02-07T03:58:26;102651.75;;;-8.19;99.58
62942;BME280;49042;47.318;19.874;2023-02-07T04:01:28;102652.44;;;-8.14;99.65
62942;BME280;49042;47.318;19.874;2023-02-07T04:04:30;102651.50;;;-8.09;99.61
62942;BME280;49042;47.318;19.874;2023-02-07T04:07:32;102654.88;;;-8.03;99.30
62942;BME280;49042;47.318;19.874;2023-02-07T04:10:34;102653.66;;;-7.93;99.00
62942;BME280;49042;47.318;19.874;2023-02-07T04:13:36;102651.88;;;-8.00;99.06
62942;BME280;49042;47.318;19.874;2023-02-07T04:16:38;102650.19;;;-7.94;99.31
62942;BME280;49042;47.318;19.874;2023-02-07T04:19:39;102648.31;;;-7.89;99.77
62942;BME280;49042;47.318;19.874;2023-02-07T04:22:41;102654.50;;;-7.87;99.68
62942;BME280;49042;47.318;19.874;2023-02-07T04:25:43;102643.94;;;-7.85;99.50
62942;BME280;49042;47.318;19.874;2023-02-07T04:28:44;102644.78;;;-7.78;99.37
62942;BME280;49042;47.318;19.874;2023-02-07T04:31:46;102641.97;;;-7.74;99.26
62942;BME280;49042;47.318;19.874;2023-02-07T04:34:48;102640.94;;;-7.63;98.60
62942;BME280;49042;47.318;19.874;2023-02-07T04:37:49;102653.84;;;-7.61;99.17
62942;BME280;49042;47.318;19.874;2023-02-07T04:40:51;102664.91;;;-7.61;98.62
62942;BME280;49042;47.318;19.874;2023-02-07T04:43:53;102649.63;;;-7.55;98.00
62942;BME280;49042;47.318;19.874;2023-02-07T04:46:55;102653.56;;;-7.57;97.74
62942;BME280;49042;47.318;19.874;2023-02-07T04:49:57;102668.53;;;-7.53;97.23
62942;BME280;49042;47.318;19.874;2023-02-07T04:52:58;102660.47;;;-7.56;97.26
62942;BME280;49042;47.318;19.874;2023-02-07T04:56:00;102664.47;;;-7.64;97.79
62942;BME280;49042;47.318;19.874;2023-02-07T04:59:02;102672.41;;;-7.74;98.40
62942;BME280;49042;47.318;19.874;2023-02-07T05:02:03;102675.19;;;-7.78;98.82
62942;BME280;49042;47.318;19.874;2023-02-07T05:05:06;102678.91;;;-7.82;99.12
62942;BME280;49042;47.318;19.874;2023-02-07T05:08:08;102685.84;;;-7.87;99.65
62942;BME280;49042;47.318;19.874;2023-02-07T05:11:10;102683.63;;;-7.97;100.00
62942;BME280;49042;47.318;19.874;2023-02-07T05:14:12;102689.00;;;-8.07;100.00
62942;BME280;49042;47.318;19.874;2023-02-07T05:17:14;102694.00;;;-8.01;99.71
62942;BME280;49042;47.318;19.874;2023-02-07T05:20:15;102694.56;;;-8.15;100.00
62942;BME280;49042;47.318;19.874;2023-02-07T05:23:18;102698.50;;;-8.17;99.96
62942;BME280;49042;47.318;19.874;2023-02-07T05:26:19;102700.56;;;-8.14;99.71
62942;BME280;49042;47.318;19.874;2023-02-07T05:29:21;102698.50;;;-8.17;99.34
62942;BME280;49042;47.318;19.874;2023-02-07T05:32:23;102706.84;;;-8.24;99.39
62942;BME280;49042;47.318;19.874;2023-02-07T05:35:43;102707.97;;;-8.22;99.26
62942;BME280;49042;47.318;19.874;2023-02-07T05:38:46;102705.06;;;-8.00;98.03
62942;BME280;49042;47.318;19.874;2023-02-07T05:41:47;102699.00;;;-8.20;98.57
62942;BME280;49042;47.318;19.874;2023-02-07T05:44:49;102706.00;;;-8.42;99.55
62942;BME280;49042;47.318;19.874;2023-02-07T05:47:51;102710.19;;;-8.48;99.95
62942;BME280;49042;47.318;19.874;2023-02-07T05:50:52;102706.94;;;-8.47;100.00
62942;BME280;49042;47.318;19.874;2023-02-07T05:53:54;102714.78;;;-8.45;99.90
62942;BME280;49042;47.318;19.874;2023-02-07T05:56:56;102713.16;;;-8.45;99.96
62942;BME280;49042;47.318;19.874;2023-02-07T05:59:58;102709.69;;;-8.40;99.81
62942;BME280;49042;47.318;19.874;2023-02-07T06:02:59;102714.00;;;-8.33;99.46
62942;BME280;49042;47.318;19.874;2023-02-07T06:06:01;102715.38;;;-8.29;99.35
62942;BME280;49042;47.318;19.874;2023-02-07T06:09:03;102713.94;;;-8.21;99.02
62942;BME280;49042;47.318;19.874;2023-02-07T06:12:05;102720.63;;;-8.22;98.96
62942;BME280;49042;47.318;19.874;2023-02-07T06:15:07;102717.66;;;-8.25;99.13
62942;BME280;49042;47.318;19.874;2023-02-07T06:18:09;102721.09;;;-8.24;99.29
62942;BME280;49042;47.318;19.874;2023-02-07T06:21:11;102727.31;;;-8.22;99.00
62942;BME280;49042;47.318;19.874;2023-02-07T06:24:16;102726.56;;;-8.16;98.73
62942;BME280;49042;47.318;19.874;2023-02-07T06:27:18;102727.47;;;-8.09;98.04
62942;BME280;49042;47.318;19.874;2023-02-07T06:30:20;102736.88;;;-8.02;97.68
62942;BME280;49042;47.318;19.874;2023-02-07T06:33:22;102737.56;;;-8.03;97.44
62942;BME280;49042;47.318;19.874;2023-02-07T06:36:23;102739.84;;;-7.99;96.97
62942;BME280;49042;47.318;19.874;2023-02-07T06:39:25;102740.22;;;-7.90;96.90
62942;BME280;49042;47.318;19.874;2023-02-07T06:42:27;102732.84;;;-7.89;96.50
62942;BME280;49042;47.318;19.874;2023-02-07T06:45:29;102737.19;;;-7.82;96.15
62942;BME280;49042;47.318;19.874;2023-02-07T06:48:31;102738.31;;;-7.80;95.75
62942;BME280;49042;47.318;19.874;2023-02-07T06:51:32;102727.22;;;-7.75;95.51
62942;BME280;49042;47.318;19.874;2023-02-07T06:54:34;102730.19;;;-7.71;95.53
62942;BME280;49042;47.318;19.874;2023-02-07T06:57:36;102721.41;;;-7.68;95.75
62942;BME280;49042;47.318;19.874;2023-02-07T07:00:38;102717.91;;;-7.63;95.51
62942;BME280;49042;47.318;19.874;2023-02-07T07:03:39;102722.69;;;-7.53;94.67
62942;BME280;49042;47.318;19.874;2023-02-07T07:06:41;102719.66;;;-7.50;94.08
62942;BME280;49042;47.318;19.874;2023-02-07T07:09:43;102714.94;;;-7.41;93.68
62942;BME280;49042;47.318;19.874;2023-02-07T07:12:47;102717.91;;;-7.38;93.18
62942;BME280;49042;47.318;19.874;2023-02-07T07:15:49;102716.09;;;-7.39;93.61
62942;BME280;49042;47.318;19.874;2023-02-07T07:18:51;102719.06;;;-7.36;93.85
62942;BME280;49042;47.318;19.874;2023-02-07T07:21:53;102723.31;;;-7.23;93.59
62942;BME280;49042;47.318;19.874;2023-02-07T07:24:55;102731.66;;;-7.05;92.92
62942;BME280;49042;47.318;19.874;2023-02-07T07:27:57;102734.16;;;-6.81;91.65
62942;BME280;49042;47.318;19.874;2023-02-07T07:31:04;102733.69;;;-6.59;90.46
62942;BME280;49042;47.318;19.874;2023-02-07T07:34:06;102734.38;;;-6.41;89.19
62942;BME280;49042;47.318;19.874;2023-02-07T07:37:08;102738.69;;;-5.89;87.81
62942;BME280;49042;47.318;19.874;2023-02-07T07:40:11;102738.78;;;-4.51;79.96
62942;BME280;49042;47.318;19.874;2023-02-07T07:43:13;102731.03;;;-5.05;81.25
62942;BME280;49042;47.318;19.874;2023-02-07T07:46:15;102733.28;;;-5.27;83.47
62942;BME280;49042;47.318;19.874;2023-02-07T07:49:16;102742.41;;;-2.19;70.99
62942;BME280;49042;47.318;19.874;2023-02-07T07:52:18;102728.75;;;3.45;48.48
62942;BME280;49042;47.318;19.874;2023-02-07T07:55:20;102725.59;;;8.56;34.90
62942;BME280;49042;47.318;19.874;2023-02-07T07:58:23;102717.44;;;10.47;29.64
62942;BME280;49042;47.318;19.874;2023-02-07T08:01:25;102709.50;;;11.53;26.89
62942;BME280;49042;47.318;19.874;2023-02-07T08:04:26;102720.03;;;12.40;26.72
62942;BME280;49042;47.318;19.874;2023-02-07T08:07:28;102715.97;;;13.53;24.37
62942;BME280;49042;47.318;19.874;2023-02-07T08:10:30;102717.56;;;12.28;24.92
62942;BME280;49042;47.318;19.874;2023-02-07T08:13:31;102729.25;;;7.35;31.43
62942;BME280;49042;47.318;19.874;2023-02-07T08:16:34;102720.97;;;3.53;38.40
62942;BME280;49042;47.318;19.874;2023-02-07T08:19:35;102726.25;;;2.05;42.95
62942;BME280;49042;47.318;19.874;2023-02-07T08:22:38;102729.78;;;0.25;48.41
62942;BME280;49042;47.318;19.874;2023-02-07T08:25:41;102724.53;;;0.00;49.99
62942;BME280;49042;47.318;19.874;2023-02-07T08:28:43;102732.59;;;0.19;50.44
62942;BME280;49042;47.318;19.874;2023-02-07T08:31:44;102730.38;;;-0.01;51.66
62942;BME280;49042;47.318;19.874;2023-02-07T08:34:48;102728.84;;;0.08;51.40
62942;BME280;49042;47.318;19.874;2023-02-07T08:37:51;102739.59;;;-0.72;53.50
62942;BME280;49042;47.318;19.874;2023-02-07T08:40:52;102734.81;;;-1.08;54.01
62942;BME280;49042;47.318;19.874;2023-02-07T08:43:54;102738.13;;;-0.32;52.70
62942;BME280;49042;47.318;19.874;2023-02-07T08:46:56;102737.47;;;1.30;48.27
62942;BME280;49042;47.318;19.874;2023-02-07T08:49:58;102744.59;;;0.68;50.70
62942;BME280;49042;47.318;19.874;2023-02-07T08:52:59;102746.59;;;2.63;48.13
62942;BME280;49042;47.318;19.874;2023-02-07T08:56:01;102748.06;;;3.21;45.42
62942;BME280;49042;47.318;19.874;2023-02-07T08:59:03;102752.66;;;2.11;48.49
62942;BME280;49042;47.318;19.874;2023-02-07T09:02:05;102765.44;;;0.94;50.10
62942;BME280;49042;47.318;19.874;2023-02-07T09:05:07;102764.03;;;1.22;51.06
62942;BME280;49042;47.318;19.874;2023-02-07T09:08:09;102773.78;;;0.05;53.81
62942;BME280;49042;47.318;19.874;2023-02-07T09:11:10;102772.53;;;-0.68;58.29
62942;BME280;49042;47.318;19.874;2023-02-07T09:14:12;102781.16;;;-2.09;65.30
62942;BME280;49042;47.318;19.874;2023-02-07T09:17:14;102777.62;;;-2.24;64.78
62942;BME280;49042;47.318;19.874;2023-02-07T09:20:16;102783.69;;;-2.09;64.74
62942;BME280;49042;47.318;19.874;2023-02-07T09:23:18;102772.19;;;-1.83;61.24
62942;BME280;49042;47.318;19.874;2023-02-07T09:26:22;102767.19;;;-1.15;60.59
62942;BME280;49042;47.318;19.874;2023-02-07T09:29:24;102765.44;;;-1.75;58.79
62942;BME280;49042;47.318;19.874;2023-02-07T09:32:26;102774.94;;;-1.89;59.47
62942;BME280;49042;47.318;19.874;2023-02-07T09:35:28;102774.16;;;-1.22;58.64
62942;BME280;49042;47.318;19.874;2023-02-07T09:38:30;102773.66;;;-1.85;59.46
62942;BME280;49042;47.318;19.874;2023-02-07T09:41:44;102780.97;;;-1.88;59.92
62942;BME280;49042;47.318;19.874;2023-02-07T09:48:07;102772.16;;;-1.17;55.45
62942;BME280;49042;47.318;19.874;2023-02-07T09:51:17;102771.25;;;-1.17;57.28
62942;BME280;49042;47.318;19.874;2023-02-07T09:54:27;102772.56;;;-0.06;54.11
62942;BME280;49042;47.318;19.874;2023-02-07T09:57:35;102774.22;;;-0.07;53.78
62942;BME280;49042;47.318;19.874;2023-02-07T10:00:41;102773.47;;;-0.68;54.70
62942;BME280;49042;47.318;19.874;2023-02-07T10:04:05;102767.69;;;-0.89;58.29
62942;BME280;49042;47.318;19.874;2023-02-07T10:07:09;102773.13;;;-0.71;57.30
62942;BME280;49042;47.318;19.874;2023-02-07T10:10:18;102769.59;;;-1.17;59.08
62942;BME280;49042;47.318;19.874;2023-02-07T10:20:31;102756.47;;;-1.27;57.60
62942;BME280;49042;47.318;19.874;2023-02-07T10:23:42;102758.44;;;-1.25;59.47
62942;BME280;49042;47.318;19.874;2023-02-07T10:26:52;102744.94;;;-1.24;57.65
62942;BME280;49042;47.318;19.874;2023-02-07T10:30:17;102745.09;;;-1.37;55.26
62942;BME280;49042;47.318;19.874;2023-02-07T10:33:30;102734.81;;;-1.15;55.23
62942;BME280;49042;47.318;19.874;2023-02-07T10:36:33;102743.50;;;-0.83;51.62
62942;BME280;49042;47.318;19.874;2023-02-07T10:39:42;102741.44;;;-0.71;49.58
62942;BME280;49042;47.318;19.874;2023-02-07T10:42:53;102732.84;;;-1.25;50.53
62942;BME280;49042;47.318;19.874;2023-02-07T10:46:17;102731.56;;;-1.28;50.24
62942;BME280;49042;47.318;19.874;2023-02-07T10:49:24;102725.31;;;-1.23;52.64
62942;BME280;49042;47.318;19.874;2023-02-07T10:52:35;102722.69;;;-1.01;52.09
62942;BME280;49042;47.318;19.874;2023-02-07T10:55:45;102720.69;;;-1.04;53.85
62942;BME280;49042;47.318;19.874;2023-02-07T10:58:48;102711.50;;;-0.94;57.58
62942;BME280;49042;47.318;19.874;2023-02-07T11:01:52;102714.75;;;0.45;54.36
62942;BME280;49042;47.318;19.874;2023-02-07T11:04:56;102708.03;;;-0.02;53.37
62942;BME280;49042;47.318;19.874;2023-02-07T11:11:27;102699.88;;;-0.14;50.63
62942;BME280;49042;47.318;19.874;2023-02-07T11:14:30;102699.69;;;-0.39;49.84
62942;BME280;49042;47.318;19.874;2023-02-07T11:17:32;102693.66;;;-0.16;49.40
62942;BME280;49042;47.318;19.874;2023-02-07T11:20:38;102694.22;;;-0.19;48.32
62942;BME280;49042;47.318;19.874;2023-02-07T11:23:42;102697.56;;;-0.82;47.90
62942;BME280;49042;47.318;19.874;2023-02-07T11:29:53;102682.44;;;-0.33;49.25
62942;BME280;49042;47.318;19.874;2023-02-07T11:32:58;102672.38;;;0.08;47.36
62942;BME280;49042;47.318;19.874;2023-02-07T11:39:15;102671.78;;;-0.29;47.46
62942;BME280;49042;47.318;19.874;2023-02-07T11:42:24;102676.16;;;-0.04;48.65
62942;BME280;49042;47.318;19.874;2023-02-07T11:45:26;102674.88;;;0.32;47.50
62942;BME280;49042;47.318;19.874;2023-02-07T11:48:38;102668.06;;;-0.24;47.24
62942;BME280;49042;47.318;19.874;2023-02-07T11:51:41;102670.56;;;0.63;46.81
62942;BME280;49042;47.318;19.874;2023-02-07T11:54:57;102661.22;;;-0.39;47.07
62942;BME280;49042;47.318;19.874;2023-02-07T11:58:08;102665.31;;;-0.80;47.43
62942;BME280;49042;47.318;19.874;2023-02-07T12:01:15;102657.97;;;-0.77;47.30
62942;BME280;49042;47.318;19.874;2023-02-07T12:04:19;102652.16;;;-0.05;46.87
62942;BME280;49042;47.318;19.874;2023-02-07T12:07:40;102639.63;;;-0.18;46.84
62942;BME280;49042;47.318;19.874;2023-02-07T12:10:47;102649.94;;;-0.25;46.51
62942;BME280;49042;47.318;19.874;2023-02-07T12:13:57;102648.88;;;0.29;46.78
62942;BME280;49042;47.318;19.874;2023-02-07T12:17:04;102641.19;;;0.61;46.74
62942;BME280;49042;47.318;19.874;2023-02-07T12:20:20;102635.56;;;0.57;47.23
62942;BME280;49042;47.318;19.874;2023-02-07T12:23:41;102639.44;;;0.85;46.36
62942;BME280;49042;47.318;19.874;2023-02-07T12:27:02;102643.09;;;0.88;45.28
62942;BME280;49042;47.318;19.874;2023-02-07T12:33:23;102634.00;;;0.17;47.26
62942;BME280;49042;47.318;19.874;2023-02-07T12:36:35;102635.81;;;0.35;47.23
62942;BME280;49042;47.318;19.874;2023-02-07T12:39:45;102639.97;;;-0.15;46.79
62942;BME280;49042;47.318;19.874;2023-02-07T12:43:04;102633.22;;;-0.45;46.45
62942;BME280;49042;47.318;19.874;2023-02-07T12:53:32;102622.44;;;-0.03;45.92
62942;BME280;49042;47.318;19.874;2023-02-07T12:57:03;102619.56;;;-0.84;47.01
62942;BME280;49042;47.318;19.874;2023-02-07T13:00:42;102620.66;;;-0.51;47.28
62942;BME280;49042;47.318;19.874;2023-02-07T13:24:20;102612.28;;;0.06;43.50
62942;BME280;49042;47.318;19.874;2023-02-07T13:27:25;102608.47;;;0.19;44.05
62942;BME280;49042;47.318;19.874;2023-02-07T13:30:29;102608.06;;;0.07;43.82
62942;BME280;49042;47.318;19.874;2023-02-07T13:33:37;102605.00;;;0.02;43.57
62942;BME280;49042;47.318;19.874;2023-02-07T13:36:42;102598.94;;;0.18;43.35
62942;BME280;49042;47.318;19.874;2023-02-07T13:39:56;102602.84;;;0.14;43.97
62942;BME280;49042;47.318;19.874;2023-02-07T13:53:57;102609.31;;;0.27;43.37
62942;BME280;49042;47.318;19.874;2023-02-07T13:57:01;102611.22;;;0.37;43.90
62942;BME280;49042;47.318;19.874;2023-02-07T14:01:18;102612.59;;;0.74;42.70
62942;BME280;49042;47.318;19.874;2023-02-07T14:04:05;102611.66;;;0.49;43.18
62942;BME280;49042;47.318;19.874;2023-02-07T14:07:20;102611.16;;;0.28;42.89
62942;BME280;49042;47.318;19.874;2023-02-07T14:10:49;102603.88;;;0.98;42.12
62942;BME280;49042;47.318;19.874;2023-02-07T14:14:25;102605.25;;;0.61;42.23
62942;BME280;49042;47.318;19.874;2023-02-07T14:20:46;102598.88;;;3.26;38.22
62942;BME280;49042;47.318;19.874;2023-02-07T14:24:15;102602.66;;;3.39;36.33
62942;BME280;49042;47.318;19.874;2023-02-07T14:27:26;102602.28;;;3.07;36.53
62942;BME280;49042;47.318;19.874;2023-02-07T14:30:34;102607.72;;;3.28;37.27
62942;BME280;49042;47.318;19.874;2023-02-07T14:33:38;102604.81;;;3.25;36.12
62942;BME280;49042;47.318;19.874;2023-02-07T14:36:41;102609.78;;;1.99;39.15
62942;BME280;49042;47.318;19.874;2023-02-07T14:39:42;102620.44;;;0.92;41.10
62942;BME280;49042;47.318;19.874;2023-02-07T14:42:57;102613.06;;;0.38;42.98
62942;BME280;49042;47.318;19.874;2023-02-07T14:46:03;102603.25;;;0.10;42.98
62942;BME280;49042;47.318;19.874;2023-02-07T14:49:37;102607.97;;;0.14;43.44
62942;BME280;49042;47.318;19.874;2023-02-07T14:52:43;102597.75;;;1.73;40.84
62942;BME280;49042;47.318;19.874;2023-02-07T14:55:52;102604.41;;;2.76;37.80
62942;BME280;49042;47.318;19.874;2023-02-07T14:58:57;102589.72;;;3.48;36.48
62942;BME280;49042;47.318;19.874;2023-02-07T15:02:41;102601.22;;;3.05;37.24
62942;BME280;49042;47.318;19.874;2023-02-07T15:05:56;102599.41;;;2.24;38.73
62942;BME280;49042;47.318;19.874;2023-02-07T15:09:00;102595.66;;;0.93;40.37
62942;BME280;49042;47.318;19.874;2023-02-07T15:12:06;102593.97;;;0.36;42.22
62942;BME280;49042;47.318;19.874;2023-02-07T15:15:34;102595.00;;;-0.27;44.27
62942;BME280;49042;47.318;19.874;2023-02-07T15:19:29;102593.47;;;-0.65;45.71
62942;BME280;49042;47.318;19.874;2023-02-07T15:22:23;102588.09;;;-0.83;46.16
62942;BME280;49042;47.318;19.874;2023-02-07T15:25:26;102597.13;;;-0.94;46.46
62942;BME280;49042;47.318;19.874;2023-02-07T15:28:30;102602.56;;;-1.14;46.80
62942;BME280;49042;47.318;19.874;2023-02-07T15:31:37;102606.22;;;-1.20;47.03
62942;BME280;49042;47.318;19.874;2023-02-07T15:34:43;102605.56;;;-1.33;47.49
62942;BME280;49042;47.318;19.874;2023-02-07T15:37:46;102604.88;;;-1.40;48.19
62942;BME280;49042;47.318;19.874;2023-02-07T15:40:49;102604.34;;;-1.52;48.78
62942;BME280;49042;47.318;19.874;2023-02-07T15:44:06;102608.97;;;-1.56;49.47
62942;BME280;49042;47.318;19.874;2023-02-07T15:50:30;102609.75;;;-1.87;51.06
62942;BME280;49042;47.318;19.874;2023-02-07T15:53:32;102609.72;;;-1.79;50.98
62942;BME280;49042;47.318;19.874;2023-02-07T15:56:34;102613.37;;;-1.70;50.57
62942;BME280;49042;47.318;19.874;2023-02-07T15:59:35;102609.94;;;-1.78;50.87
62942;BME280;49042;47.318;19.874;2023-02-07T16:02:42;102613.16;;;-1.57;50.65
62942;BME280;49042;47.318;19.874;2023-02-07T16:05:48;102612.13;;;-1.81;51.42
62942;BME280;49042;47.318;19.874;2023-02-07T16:09:00;102617.63;;;-1.85;51.78
62942;BME280;49042;47.318;19.874;2023-02-07T16:15:35;102608.28;;;-2.87;59.09
62942;BME280;49042;47.318;19.874;2023-02-07T16:18:42;102609.22;;;-2.87;59.21
62942;BME280;49042;47.318;19.874;2023-02-07T16:22:33;102615.63;;;-2.47;58.37
62942;BME280;49042;47.318;19.874;2023-02-07T16:25:32;102617.28;;;-2.40;59.60
62942;BME280;49042;47.318;19.874;2023-02-07T16:28:34;102600.66;;;-2.29;59.79
62942;BME280;49042;47.318;19.874;2023-02-07T16:31:36;102610.66;;;-2.82;62.59
62942;BME280;49042;47.318;19.874;2023-02-07T16:34:39;102612.66;;;-2.94;63.32
62942;BME280;49042;47.318;19.874;2023-02-07T16:37:59;102606.50;;;-2.74;61.61
62942;BME280;49042;47.318;19.874;2023-02-07T16:41:01;102613.28;;;-3.24;63.34
62942;BME280;49042;47.318;19.874;2023-02-07T16:44:05;102612.34;;;-3.32;63.28
62942;BME280;49042;47.318;19.874;2023-02-07T16:47:08;102612.34;;;-3.32;61.61
62942;BME280;49042;47.318;19.874;2023-02-07T16:50:21;102609.97;;;-3.30;61.78
62942;BME280;49042;47.318;19.874;2023-02-07T16:53:23;102615.44;;;-3.35;61.99
62942;BME280;49042;47.318;19.874;2023-02-07T16:56:28;102614.72;;;-3.34;61.40
62942;BME280;49042;47.318;19.874;2023-02-07T16:59:30;102624.72;;;-3.35;61.73
62942;BME280;49042;47.318;19.874;2023-02-07T17:02:31;102628.53;;;-3.39;61.36
62942;BME280;49042;47.318;19.874;2023-02-07T17:05:33;102619.94;;;-3.47;62.70
62942;BME280;49042;47.318;19.874;2023-02-07T17:08:35;102618.88;;;-3.41;62.05
62942;BME280;49042;47.318;19.874;2023-02-07T17:11:38;102627.41;;;-3.48;62.97
62942;BME280;49042;47.318;19.874;2023-02-07T17:14:40;102622.13;;;-3.50;63.17
62942;BME280;49042;47.318;19.874;2023-02-07T17:17:41;102622.84;;;-3.51;63.87
62942;BME280;49042;47.318;19.874;2023-02-07T17:20:43;102630.06;;;-3.61;65.12
62942;BME280;49042;47.318;19.874;2023-02-07T17:23:46;102628.25;;;-3.62;64.73
62942;BME280;49042;47.318;19.874;2023-02-07T17:26:51;102625.31;;;-3.66;64.88
62942;BME280;49042;47.318;19.874;2023-02-07T17:29:54;102628.94;;;-3.63;64.60
62942;BME280;49042;47.318;19.874;2023-02-07T17:32:56;102628.19;;;-3.70;64.66
62942;BME280;49042;47.318;19.874;2023-02-07T17:36:00;102633.84;;;-3.72;65.26
62942;BME280;49042;47.318;19.874;2023-02-07T17:39:03;102636.34;;;-3.80;66.07
62942;BME280;49042;47.318;19.874;2023-02-07T17:42:06;102631.53;;;-3.91;67.07
62942;BME280;49042;47.318;19.874;2023-02-07T17:45:08;102631.34;;;-3.93;67.27
62942;BME280;49042;47.318;19.874;2023-02-07T17:48:11;102632.22;;;-4.00;67.87
62942;BME280;49042;47.318;19.874;2023-02-07T17:51:14;102637.09;;;-4.01;68.10
62942;BME280;49042;47.318;19.874;2023-02-07T17:54:17;102632.72;;;-4.02;67.91
62942;BME280;49042;47.318;19.874;2023-02-07T17:57:21;102637.25;;;-4.07;68.26